createdAt,value
2022-10-26T00:01:16.473Z,13.28
2022-10-26T00:03:45.863Z,13.27
2022-10-26T00:06:21.991Z,13.26
2022-10-26T00:08:49.258Z,13.33
2022-10-26T00:11:16.725Z,13.29
2022-10-26T00:13:44.189Z,13.32
2022-10-26T00:16:26.592Z,13.29
2022-10-26T00:18:53.514Z,13.31
2022-10-26T00:21:20.525Z,13.37
2022-10-26T00:23:47.406Z,13.39
2022-10-26T00:26:14.221Z,13.40
2022-10-26T00:28:41.463Z,13.42
2022-10-26T00:31:14.793Z,13.42
2022-10-26T00:33:42.124Z,13.44
2022-10-26T00:36:10.360Z,13.47
2022-10-26T00:38:38.352Z,13.49
2022-10-26T00:41:05.613Z,13.49
2022-10-26T00:43:32.305Z,13.49
2022-10-26T00:46:00.412Z,13.52
2022-10-26T00:48:35.040Z,13.55
2022-10-26T00:51:12.475Z,13.56
2022-10-26T00:53:39.844Z,13.54
2022-10-26T00:56:07.189Z,13.55
2022-10-26T00:58:35.971Z,13.60
2022-10-26T01:01:03.135Z,13.59
2022-10-26T01:03:32.255Z,13.62
2022-10-26T01:05:59.503Z,13.61
2022-10-26T01:08:28.777Z,13.65
2022-10-26T01:10:58.414Z,13.63
2022-10-26T01:13:28.725Z,13.67
2022-10-26T01:17:00.380Z,13.65
2022-10-26T01:19:51.951Z,13.67
2022-10-26T01:22:49.953Z,13.66
2022-10-26T01:25:41.327Z,13.69
2022-10-26T01:28:31.830Z,13.66
2022-10-26T01:31:01.804Z,13.71
2022-10-26T01:33:35.190Z,13.72
2022-10-26T01:52:07.722Z,13.82
2022-10-26T01:54:56.516Z,13.86
2022-10-26T02:01:09.981Z,13.94
2022-10-26T02:16:40.342Z,13.90
2022-10-26T02:32:47.440Z,13.90
2022-10-26T02:36:27.933Z,13.90
2022-10-26T02:39:40.724Z,13.91
2022-10-26T02:43:17.433Z,13.92
2022-10-26T03:06:59.349Z,13.95
2022-10-26T03:14:25.184Z,13.99
2022-10-26T03:17:11.543Z,14.01
2022-10-26T03:34:10.194Z,14.04
2022-10-26T03:37:14.558Z,14.06
2022-10-26T03:40:57.607Z,14.09
2022-10-26T03:59:47.551Z,14.17
2022-10-26T04:10:29.285Z,14.19
2022-10-26T04:23:44.893Z,14.22
2022-10-26T04:35:03.254Z,14.16
2022-10-26T04:49:59.777Z,13.86
2022-10-26T05:03:35.444Z,13.60
2022-10-26T05:26:56.432Z,13.36
2022-10-26T05:33:48.233Z,13.39
2022-10-26T05:46:50.994Z,13.65
2022-10-26T06:06:32.952Z,13.82
2022-10-26T06:09:00.097Z,13.83
2022-10-26T06:11:27.312Z,13.84
2022-10-26T06:13:54.908Z,13.81
2022-10-26T06:16:42.008Z,13.84
2022-10-26T06:19:42.128Z,13.79
2022-10-26T06:22:33.019Z,13.79
2022-10-26T06:25:27.384Z,13.74
2022-10-26T06:31:18.745Z,13.67
2022-10-26T06:33:46.002Z,13.69
2022-10-26T06:36:25.390Z,13.71
2022-10-26T06:39:00.209Z,13.72
2022-10-26T06:41:27.702Z,13.79
2022-10-26T06:43:54.931Z,13.77
2022-10-26T06:46:28.103Z,13.81
2022-10-26T06:49:18.919Z,13.83
2022-10-26T06:51:59.174Z,13.86
2022-10-26T06:54:44.096Z,13.91
2022-10-26T06:57:13.497Z,13.92
2022-10-26T06:59:47.919Z,13.89
2022-10-26T07:02:15.442Z,13.93
2022-10-26T07:04:43.719Z,13.95
2022-10-26T07:07:18.744Z,13.96
2022-10-26T07:09:45.580Z,13.94
2022-10-26T07:12:12.509Z,13.98
2022-10-26T07:14:39.448Z,13.98
2022-10-26T07:17:06.933Z,14.00
2022-10-26T07:19:33.731Z,14.02
2022-10-26T07:22:01.410Z,14.04
2022-10-26T07:24:31.428Z,14.03
2022-10-26T07:26:59.014Z,14.04
2022-10-26T07:29:27.447Z,14.04
2022-10-26T07:34:41.514Z,14.12
2022-10-26T07:37:08.529Z,14.11
2022-10-26T07:39:35.307Z,14.14
2022-10-26T07:42:02.149Z,14.17
2022-10-26T07:44:29.106Z,14.21
2022-10-26T07:46:55.868Z,14.22
2022-10-26T07:49:26.091Z,14.26
2022-10-26T07:51:54.773Z,14.28
2022-10-26T07:54:21.577Z,14.28
2022-10-26T07:56:51.748Z,14.32
2022-10-26T07:59:18.635Z,14.40
2022-10-26T08:01:45.555Z,14.42
2022-10-26T08:04:12.473Z,14.45
2022-10-26T08:06:39.315Z,14.46
2022-10-26T08:09:06.239Z,14.43
2022-10-26T08:11:33.292Z,14.43
2022-10-26T08:14:00.118Z,14.47
2022-10-26T08:16:27.068Z,14.45
2022-10-26T08:18:53.887Z,14.50
2022-10-26T08:21:30.390Z,14.49
2022-10-26T08:24:03.360Z,14.48
2022-10-26T08:26:30.809Z,14.46
2022-10-26T08:28:57.668Z,14.40
2022-10-26T08:31:24.749Z,14.39
2022-10-26T08:33:51.507Z,14.41
2022-10-26T08:36:24.555Z,14.45
2022-10-26T08:38:52.631Z,14.45
2022-10-26T08:41:36.408Z,14.42
2022-10-26T08:44:30.531Z,14.43
2022-10-26T08:47:08.461Z,14.47
2022-10-26T08:49:44.475Z,14.53
2022-10-26T08:52:19.221Z,14.65
2022-10-26T08:54:53.327Z,14.73
2022-10-26T08:57:38.460Z,14.81
2022-10-26T09:00:19.244Z,14.92
2022-10-26T09:02:51.271Z,14.99
2022-10-26T09:05:23.860Z,15.06
2022-10-26T09:08:04.487Z,15.09
2022-10-26T09:10:39.715Z,15.16
2022-10-26T09:13:56.385Z,15.16
2022-10-26T09:16:54.312Z,15.19
2022-10-26T09:19:24.436Z,15.18
2022-10-26T09:22:03.358Z,15.17
2022-10-26T09:24:39.196Z,15.17
2022-10-26T09:27:29.080Z,15.23
2022-10-26T09:30:18.615Z,15.24
2022-10-26T09:32:53.605Z,15.27
2022-10-26T09:35:50.091Z,15.15
2022-10-26T09:38:49.224Z,15.22
2022-10-26T09:41:39.145Z,15.19
2022-10-26T09:44:20.464Z,15.18
2022-10-26T09:47:05.212Z,15.19
2022-10-26T09:49:42.663Z,15.22
2022-10-26T09:54:36.517Z,15.31
2022-10-26T09:57:05.041Z,15.35
2022-10-26T09:59:38.724Z,15.37
2022-10-26T10:02:37.703Z,15.46
2022-10-26T10:05:50.693Z,15.55
2022-10-26T10:08:22.293Z,15.62
2022-10-26T10:11:08.367Z,15.70
2022-10-26T10:13:44.150Z,15.77
2022-10-26T10:16:20.872Z,15.82
2022-10-26T10:19:00.135Z,15.87
2022-10-26T10:21:39.183Z,15.94
2022-10-26T10:24:25.559Z,16.01
2022-10-26T10:27:17.527Z,16.02
2022-10-26T10:29:47.183Z,16.08
2022-10-26T10:32:23.360Z,16.12
2022-10-26T10:34:58.461Z,16.17
2022-10-26T10:37:30.663Z,16.13
2022-10-26T10:40:24.474Z,16.22
2022-10-26T10:42:55.417Z,16.20
2022-10-26T10:45:23.085Z,16.20
2022-10-26T10:48:03.238Z,16.18
2022-10-26T10:50:31.750Z,16.20
2022-10-26T10:53:35.720Z,16.17
2022-10-26T10:56:20.644Z,16.18
2022-10-26T10:59:11.397Z,16.21
2022-10-26T11:01:56.915Z,16.22
2022-10-26T11:04:35.630Z,16.18
2022-10-26T11:07:06.480Z,16.26
2022-10-26T11:09:38.148Z,16.28
2022-10-26T11:12:15.786Z,16.34
2022-10-26T11:14:53.819Z,16.34
2022-10-26T11:17:32.032Z,16.42
2022-10-26T11:20:16.188Z,16.47
2022-10-26T11:23:02.213Z,16.54
2022-10-26T11:25:44.726Z,16.55
2022-10-26T11:28:34.180Z,16.62
2022-10-26T11:31:11.308Z,16.68
2022-10-26T11:33:47.593Z,16.71
2022-10-26T11:36:22.055Z,16.76
2022-10-26T11:39:14.416Z,16.74
2022-10-26T11:41:51.628Z,16.84
2022-10-26T11:44:40.678Z,16.81
2022-10-26T11:47:22.667Z,16.87
2022-10-26T11:50:12.184Z,16.85
2022-10-26T11:53:10.950Z,16.81
2022-10-26T11:55:39.980Z,16.82
2022-10-26T11:58:11.695Z,16.80
2022-10-26T12:01:14.337Z,16.79
2022-10-26T12:03:50.868Z,16.80
2022-10-26T12:06:26.088Z,16.85
2022-10-26T12:09:18.155Z,16.91
2022-10-26T12:11:58.234Z,16.99
2022-10-26T12:14:37.981Z,17.01
2022-10-26T12:17:14.912Z,17.00
2022-10-26T12:19:54.561Z,17.02
2022-10-26T12:22:30.956Z,17.02
2022-10-26T12:25:16.062Z,17.05
2022-10-26T12:27:42.849Z,17.07
2022-10-26T12:30:19.008Z,17.06
2022-10-26T12:32:45.733Z,17.04
2022-10-26T12:35:44.982Z,17.04
2022-10-26T12:38:37.920Z,17.08
2022-10-26T12:41:18.713Z,17.12
2022-10-26T12:43:46.379Z,17.14
2022-10-26T12:46:13.266Z,17.15
2022-10-26T12:48:44.615Z,17.16
2022-10-26T12:51:24.939Z,17.20
2022-10-26T12:53:57.986Z,17.23
2022-10-26T12:56:55.550Z,17.21
2022-10-26T12:59:33.947Z,17.20
2022-10-26T13:02:31.820Z,17.18
2022-10-26T13:05:34.616Z,17.19
2022-10-26T13:08:06.711Z,17.19
2022-10-26T13:10:35.610Z,17.17
2022-10-26T13:13:06.593Z,17.15
2022-10-26T13:15:41.327Z,17.20
2022-10-26T13:18:18.033Z,17.23
2022-10-26T13:21:15.142Z,17.30
2022-10-26T13:23:46.791Z,17.34
2022-10-26T13:26:17.876Z,17.42
2022-10-26T13:29:01.122Z,17.44
2022-10-26T13:31:31.528Z,17.48
2022-10-26T13:37:13.307Z,17.45
2022-10-26T13:39:44.313Z,17.49
2022-10-26T13:42:20.153Z,17.45
2022-10-26T13:44:59.669Z,17.45
2022-10-26T13:47:49.274Z,17.38
2022-10-26T13:50:21.307Z,17.40
2022-10-26T13:52:54.873Z,17.33
2022-10-26T13:55:32.870Z,17.32
2022-10-26T13:58:18.006Z,17.26
2022-10-26T14:01:10.553Z,17.29
2022-10-26T14:03:38.418Z,17.26
2022-10-26T14:06:18.501Z,17.24
2022-10-26T14:08:49.540Z,17.31
2022-10-26T14:11:22.286Z,17.38
2022-10-26T14:13:51.235Z,17.40
2022-10-26T14:16:20.607Z,17.40
2022-10-26T14:18:49.380Z,17.38
2022-10-26T14:21:20.731Z,17.41
2022-10-26T14:23:58.853Z,17.41
2022-10-26T14:26:42.225Z,17.46
2022-10-26T14:29:20.986Z,17.46
2022-10-26T14:31:49.342Z,17.46
2022-10-26T14:34:17.312Z,17.44
2022-10-26T14:37:02.178Z,17.41
2022-10-26T14:39:46.408Z,17.36
2022-10-26T14:42:33.641Z,17.29
2022-10-26T14:45:02.504Z,17.25
2022-10-26T14:47:32.244Z,17.22
2022-10-26T14:52:36.213Z,17.18
2022-10-26T14:55:14.990Z,17.14
2022-10-26T14:57:45.159Z,17.09
2022-10-26T15:00:23.692Z,17.05
2022-10-26T15:02:56.563Z,17.00
2022-10-26T15:05:35.708Z,16.94
2022-10-26T15:08:03.476Z,16.93
2022-10-26T15:10:36.241Z,16.91
2022-10-26T15:13:25.486Z,16.94
2022-10-26T15:15:57.496Z,17.02
2022-10-26T15:18:30.577Z,17.01
2022-10-26T15:20:57.963Z,17.01
2022-10-26T15:23:28.228Z,16.98
2022-10-26T15:25:59.093Z,16.87
2022-10-26T15:28:39.556Z,16.82
2022-10-26T15:31:10.811Z,16.73
2022-10-26T15:34:03.232Z,16.62
2022-10-26T15:36:32.012Z,16.56
2022-10-26T15:39:00.050Z,16.48
2022-10-26T15:41:31.046Z,16.38
2022-10-26T15:44:01.730Z,16.29
2022-10-26T15:46:37.236Z,16.24
2022-10-26T15:49:08.056Z,16.17
2022-10-26T15:51:35.485Z,16.14
2022-10-26T15:54:04.672Z,16.07
2022-10-26T15:56:32.440Z,16.00
2022-10-26T15:58:59.487Z,15.95
2022-10-26T16:01:29.637Z,15.91
2022-10-26T16:03:56.496Z,15.82
2022-10-26T16:06:34.022Z,15.83
2022-10-26T16:09:04.115Z,15.83
2022-10-26T16:11:31.054Z,15.77
2022-10-26T16:14:01.071Z,15.77
2022-10-26T16:16:30.550Z,15.73
2022-10-26T16:19:18.407Z,15.69
2022-10-26T16:21:44.276Z,15.62
2022-10-26T16:24:12.056Z,15.57
2022-10-26T16:26:38.802Z,15.47
2022-10-26T16:29:05.548Z,15.44
2022-10-26T16:31:32.313Z,15.35
2022-10-26T16:34:01.787Z,15.27
2022-10-26T16:36:32.926Z,15.21
2022-10-26T16:39:00.039Z,15.15
2022-10-26T16:41:26.863Z,15.07
2022-10-26T16:43:53.640Z,14.98
2022-10-26T16:46:21.728Z,14.95
2022-10-26T16:48:50.423Z,14.92
2022-10-26T16:51:22.612Z,14.88
2022-10-26T16:53:54.115Z,14.81
2022-10-26T16:56:25.506Z,14.79
2022-10-26T16:58:52.952Z,14.74
2022-10-26T17:01:21.478Z,14.70
2022-10-26T17:03:51.741Z,14.64
2022-10-26T17:06:19.232Z,14.60
2022-10-26T17:08:46.123Z,14.53
2022-10-26T17:11:19.744Z,14.52
2022-10-26T17:13:47.761Z,14.46
2022-10-26T17:16:21.259Z,14.43
2022-10-26T17:18:48.910Z,14.39
2022-10-26T17:21:20.346Z,14.38
2022-10-26T17:23:47.256Z,14.35
2022-10-26T17:26:15.241Z,14.33
2022-10-26T17:28:42.181Z,14.31
2022-10-26T17:31:10.482Z,14.31
2022-10-26T17:33:39.559Z,14.28
2022-10-26T17:36:07.987Z,14.27
2022-10-26T17:38:38.293Z,14.29
2022-10-26T17:41:12.015Z,14.32
2022-10-26T17:43:40.806Z,14.37
2022-10-26T17:46:14.418Z,14.39
2022-10-26T17:48:41.492Z,14.40
2022-10-26T17:51:16.381Z,14.50
2022-10-26T17:53:51.288Z,14.51
2022-10-26T17:56:32.147Z,14.55
2022-10-26T17:59:03.983Z,14.55
2022-10-26T18:01:32.189Z,14.57
2022-10-26T18:04:00.568Z,14.49
2022-10-26T18:06:27.446Z,14.47
2022-10-26T18:08:57.854Z,14.44
2022-10-26T18:11:27.212Z,14.46
2022-10-26T18:13:58.172Z,14.40
2022-10-26T18:16:27.734Z,14.37
2022-10-26T18:19:01.658Z,14.35
2022-10-26T18:21:32.509Z,14.31
2022-10-26T18:23:59.915Z,14.26
2022-10-26T18:26:29.434Z,14.21
2022-10-26T18:29:00.862Z,14.16
2022-10-26T18:31:30.546Z,14.10
2022-10-26T18:34:03.643Z,14.07
2022-10-26T18:36:31.761Z,14.00
2022-10-26T18:38:58.719Z,13.97
2022-10-26T18:41:26.624Z,13.92
2022-10-26T18:43:59.076Z,13.88
2022-10-26T18:46:29.156Z,13.81
2022-10-26T18:48:58.247Z,13.78
2022-10-26T18:51:30.685Z,13.74
2022-10-26T18:53:58.631Z,13.69
2022-10-26T18:56:26.398Z,13.62
2022-10-26T18:58:58.550Z,13.59
2022-10-26T19:01:39.610Z,13.53
2022-10-26T19:04:09.295Z,13.52
2022-10-26T19:06:45.220Z,13.48
2022-10-26T19:09:12.644Z,13.43
2022-10-26T19:11:39.668Z,13.41
2022-10-26T19:14:07.820Z,13.38
2022-10-26T19:16:50.862Z,13.35
2022-10-26T19:19:19.767Z,13.32
2022-10-26T19:21:49.425Z,13.32
2022-10-26T19:24:20.223Z,13.33
2022-10-26T19:26:49.102Z,13.37
2022-10-26T19:29:17.814Z,13.41
2022-10-26T19:31:46.228Z,13.41
2022-10-26T19:34:15.848Z,13.43
2022-10-26T19:36:45.243Z,13.44
2022-10-26T19:39:14.487Z,13.43
2022-10-26T19:41:41.417Z,13.44
2022-10-26T19:44:11.554Z,13.47
2022-10-26T19:46:39.865Z,13.50
2022-10-26T19:49:06.814Z,13.57
2022-10-26T19:51:33.671Z,13.61
2022-10-26T19:54:03.841Z,13.63
2022-10-26T19:56:32.652Z,13.69
2022-10-26T19:58:59.882Z,13.68
2022-10-26T20:01:26.899Z,13.74
2022-10-26T20:03:53.830Z,13.73
2022-10-26T20:06:20.812Z,13.71
2022-10-26T20:08:49.388Z,13.66
2022-10-26T20:11:18.591Z,13.64
2022-10-26T20:13:47.325Z,13.60
2022-10-26T20:16:16.182Z,13.56
2022-10-26T20:18:47.519Z,13.54
2022-10-26T20:21:17.379Z,13.50
2022-10-26T20:23:45.171Z,13.44
2022-10-26T20:26:19.058Z,13.43
2022-10-26T20:28:48.251Z,13.37
2022-10-26T20:31:15.443Z,13.38
2022-10-26T20:33:42.292Z,13.40
2022-10-26T20:36:09.151Z,13.36
2022-10-26T20:38:36.739Z,13.33
2022-10-26T20:41:07.708Z,13.31
2022-10-26T20:43:40.199Z,13.27
2022-10-26T20:46:33.526Z,13.25
2022-10-26T20:49:00.713Z,13.26
2022-10-26T20:52:26.014Z,13.17
2022-10-26T20:55:04.685Z,13.17
2022-10-26T20:57:33.261Z,13.18
2022-10-26T21:00:09.166Z,13.16
2022-10-26T21:02:36.044Z,13.14
2022-10-26T21:05:03.556Z,13.13
2022-10-26T21:07:30.371Z,13.09
2022-10-26T21:09:57.133Z,13.09
2022-10-26T21:12:24.173Z,13.06
2022-10-26T21:14:50.969Z,13.05
2022-10-26T21:17:17.706Z,13.03
2022-10-26T21:19:44.782Z,13.03
2022-10-26T21:22:11.629Z,13.00
2022-10-26T21:24:38.392Z,13.00
2022-10-26T21:27:05.114Z,12.99
2022-10-26T21:29:31.874Z,12.96
2022-10-26T21:31:58.645Z,12.95
2022-10-26T21:34:25.503Z,12.94
2022-10-26T21:36:52.307Z,12.91
2022-10-26T21:39:19.256Z,12.89
2022-10-26T21:41:45.995Z,12.88
2022-10-26T21:44:24.725Z,12.87
2022-10-26T21:46:59.482Z,12.86
2022-10-26T21:49:26.235Z,12.88
2022-10-26T21:51:53.060Z,12.85
2022-10-26T21:54:19.832Z,12.81
2022-10-26T21:56:46.567Z,12.82
2022-10-26T21:59:13.299Z,12.82
2022-10-26T22:01:40.398Z,12.78
2022-10-26T22:04:07.530Z,12.82
2022-10-26T22:06:34.385Z,12.79
2022-10-26T22:09:01.121Z,12.79
2022-10-26T22:11:27.963Z,12.77
2022-10-26T22:13:54.733Z,12.74
2022-10-26T22:16:28.239Z,12.73
2022-10-26T22:18:58.226Z,12.74
2022-10-26T22:21:27.585Z,12.73
2022-10-26T22:23:55.247Z,12.70
2022-10-26T22:26:24.707Z,12.70
2022-10-26T22:28:55.403Z,12.69
2022-10-26T22:34:18.204Z,12.60
2022-10-26T22:36:45.127Z,12.63
2022-10-26T22:39:11.872Z,12.64
2022-10-26T22:41:38.711Z,12.65
2022-10-26T22:44:05.695Z,12.62
2022-10-26T22:46:32.698Z,12.64
2022-10-26T22:49:01.999Z,12.64
2022-10-26T22:51:34.494Z,12.66
2022-10-26T22:54:03.705Z,12.65
2022-10-26T22:56:32.856Z,12.65
2022-10-26T22:58:59.843Z,12.65
2022-10-26T23:01:33.661Z,12.63
2022-10-26T23:04:00.771Z,12.65
2022-10-26T23:06:31.814Z,12.65
2022-10-26T23:08:58.945Z,12.64
2022-10-26T23:11:28.733Z,12.63
2022-10-26T23:13:58.566Z,12.61
2022-10-26T23:16:26.166Z,12.59
2022-10-26T23:18:56.184Z,12.58
2022-10-26T23:24:11.956Z,12.55
2022-10-26T23:26:38.691Z,12.53
2022-10-26T23:29:06.250Z,12.49
2022-10-26T23:31:32.976Z,12.48
2022-10-26T23:33:59.745Z,12.47
2022-10-26T23:36:26.743Z,12.47
2022-10-26T23:38:53.650Z,12.43
2022-10-26T23:41:20.400Z,12.42
2022-10-26T23:43:47.151Z,12.41
2022-10-26T23:46:14.052Z,12.41
2022-10-26T23:48:41.212Z,12.39
2022-10-26T23:51:07.986Z,12.38
2022-10-26T23:53:35.129Z,12.35
2022-10-26T23:56:02.132Z,12.32
2022-10-26T23:58:29.234Z,12.31
